createdAt,value
2022-11-20T00:04:40.507Z,96951.63
2022-11-20T00:09:45.349Z,96947.09
2022-11-20T00:14:48.964Z,96961.78
2022-11-20T00:19:52.648Z,96963.78
2022-11-20T00:24:58.344Z,96951.78
2022-11-20T00:30:01.882Z,96953.69
2022-11-20T00:35:06.488Z,96948.75
2022-11-20T00:40:12.524Z,96959.78
2022-11-20T00:45:16.185Z,96945.47
2022-11-20T00:50:19.650Z,96945.63
2022-11-20T00:55:24.576Z,96939.72
2022-11-20T01:00:28.109Z,96945.66
2022-11-20T01:05:35.911Z,96939.59
2022-11-20T01:10:40.937Z,96932.69
2022-11-20T01:15:44.568Z,96935.38
2022-11-20T01:20:48.187Z,96934.41
2022-11-20T01:25:53.425Z,96939.63
2022-11-20T01:30:56.991Z,96939.59
2022-11-20T01:36:06.401Z,96929.41
2022-11-20T01:41:32.307Z,96937.94
2022-11-20T01:46:38.932Z,96928.56
2022-11-20T01:51:46.389Z,96928.78
2022-11-20T01:56:56.946Z,96922.00
2022-11-20T02:02:00.743Z,96915.94
2022-11-20T02:07:07.442Z,96911.84
2022-11-20T02:12:32.937Z,96899.78
2022-11-20T02:17:36.565Z,96897.84
2022-11-20T02:22:50.767Z,96893.66
2022-11-20T02:27:56.052Z,96885.91
2022-11-20T02:33:00.167Z,96878.19
2022-11-20T02:38:04.874Z,96887.72
2022-11-20T02:43:10.637Z,96881.09
2022-11-20T02:48:14.270Z,96877.69
2022-11-20T02:53:17.778Z,96879.00
2022-11-20T02:58:22.776Z,96875.97
2022-11-20T03:03:27.814Z,96878.53
2022-11-20T03:08:31.458Z,96871.94
2022-11-20T03:13:37.336Z,96878.44
2022-11-20T03:18:41.297Z,96866.09
2022-11-20T03:23:44.982Z,96869.03
2022-11-20T03:28:51.271Z,96872.34
2022-11-20T03:33:55.219Z,96868.09
2022-11-20T03:38:59.296Z,96852.66
2022-11-20T03:44:06.742Z,96852.84
2022-11-20T03:49:10.344Z,96849.59
2022-11-20T03:54:14.017Z,96862.97
2022-11-20T03:59:19.207Z,96852.66
2022-11-20T04:04:23.084Z,96858.59
2022-11-20T04:09:26.635Z,96855.75
2022-11-20T04:14:31.638Z,96846.50
2022-11-20T04:19:35.176Z,96843.94
2022-11-20T04:24:38.702Z,96847.34
2022-11-20T04:29:43.631Z,96850.84
2022-11-20T04:34:47.222Z,96857.59
2022-11-20T04:39:50.812Z,96847.50
2022-11-20T04:44:55.862Z,96848.94
2022-11-20T04:49:59.414Z,96835.94
2022-11-20T04:55:03.051Z,96836.97
2022-11-20T05:00:09.605Z,96825.50
2022-11-20T05:05:13.335Z,96820.44
2022-11-20T05:10:17.530Z,96828.00
2022-11-20T05:15:22.440Z,96825.19
2022-11-20T05:20:26.123Z,96841.09
2022-11-20T05:25:29.853Z,96834.22
2022-11-20T05:30:34.796Z,96841.72
2022-11-20T05:35:38.335Z,96852.94
2022-11-20T05:40:41.939Z,96844.22
2022-11-20T05:45:54.396Z,96841.25
2022-11-20T05:50:59.879Z,96837.19
2022-11-20T05:56:05.459Z,96834.84
2022-11-20T06:01:12.850Z,96836.53
2022-11-20T06:06:17.757Z,96842.03
2022-11-20T06:11:21.273Z,96834.72
2022-11-20T06:16:26.267Z,96833.75
2022-11-20T06:21:30.051Z,96823.94
2022-11-20T06:26:33.789Z,96825.63
2022-11-20T06:31:39.107Z,96813.22
2022-11-20T06:36:42.501Z,96809.47
2022-11-20T06:41:46.126Z,96800.41
2022-11-20T06:46:51.214Z,96797.84
2022-11-20T06:51:54.680Z,96829.41
2022-11-20T06:56:58.372Z,96835.84
2022-11-20T07:02:03.289Z,96829.38
2022-11-20T07:07:07.285Z,96820.41
2022-11-20T07:12:11.930Z,96813.28
2022-11-20T07:17:17.961Z,96815.19
2022-11-20T07:22:22.700Z,96813.72
2022-11-20T07:27:26.182Z,96810.94
2022-11-20T07:32:31.180Z,96820.72
2022-11-20T07:37:36.532Z,96821.31
2022-11-20T07:42:40.112Z,96816.59
2022-11-20T07:47:45.248Z,96816.97
2022-11-20T07:52:49.120Z,96810.69
2022-11-20T07:57:56.645Z,96817.09
2022-11-20T08:03:01.587Z,96805.25
2022-11-20T08:08:05.537Z,96799.38
2022-11-20T08:13:28.637Z,96795.84
2022-11-20T08:18:33.663Z,96801.03
2022-11-20T08:23:37.238Z,96786.34
2022-11-20T08:28:40.878Z,96804.25
2022-11-20T08:33:45.775Z,96801.22
2022-11-20T08:38:50.306Z,96803.28
2022-11-20T08:43:55.990Z,96807.03
2022-11-20T08:49:01.292Z,96804.13
2022-11-20T08:54:06.147Z,96792.56
2022-11-20T08:59:23.326Z,96795.97
2022-11-20T09:04:34.730Z,96794.59
2022-11-20T09:09:38.371Z,96790.94
2022-11-20T09:14:41.981Z,96799.50
2022-11-20T09:19:47.169Z,96788.22
2022-11-20T09:24:50.818Z,96780.47
2022-11-20T09:29:54.446Z,96771.53
2022-11-20T09:40:09.335Z,96773.88
2022-11-20T09:45:27.055Z,96777.25
2022-11-20T09:50:35.436Z,96775.34
2022-11-20T09:55:39.931Z,96779.34
2022-11-20T10:00:43.797Z,96775.25
2022-11-20T10:05:52.450Z,96778.81
2022-11-20T10:11:04.345Z,96773.22
2022-11-20T10:16:21.266Z,96757.06
2022-11-20T10:21:34.622Z,96759.19
2022-11-20T10:26:49.393Z,96754.13
2022-11-20T10:31:57.988Z,96744.28
2022-11-20T10:37:11.423Z,96741.34
2022-11-20T10:42:23.939Z,96743.94
2022-11-20T10:47:29.797Z,96738.66
2022-11-20T10:52:47.681Z,96746.34
2022-11-20T10:58:03.125Z,96742.00
2022-11-20T11:03:23.751Z,96732.84
2022-11-20T11:08:36.707Z,96732.19
2022-11-20T11:13:40.540Z,96727.63
2022-11-20T11:18:44.183Z,96725.13
2022-11-20T11:23:49.478Z,96727.16
2022-11-20T11:28:58.223Z,96721.19
2022-11-20T11:34:08.960Z,96711.97
2022-11-20T11:39:18.506Z,96716.63
2022-11-20T11:44:42.954Z,96715.31
2022-11-20T11:49:46.952Z,96700.88
2022-11-20T11:54:55.740Z,96696.72
2022-11-20T12:00:05.778Z,96696.25
2022-11-20T12:05:21.868Z,96699.94
2022-11-20T12:10:40.357Z,96687.28
2022-11-20T12:15:48.399Z,96686.16
2022-11-20T12:21:05.925Z,96680.78
2022-11-20T12:26:20.479Z,96673.28
2022-11-20T12:31:46.675Z,96679.72
2022-11-20T12:36:57.434Z,96690.97
2022-11-20T12:42:38.735Z,96689.94
2022-11-20T12:48:00.996Z,96689.72
2022-11-20T12:53:08.268Z,96684.03
2022-11-20T12:58:26.799Z,96683.25
2022-11-20T13:03:45.388Z,96681.59
2022-11-20T13:08:55.617Z,96693.63
2022-11-20T13:14:26.596Z,96686.16
2022-11-20T13:19:30.675Z,96682.53
2022-11-20T13:24:34.910Z,96676.78
2022-11-20T13:29:47.719Z,96683.75
2022-11-20T13:34:56.362Z,96682.66
2022-11-20T13:40:24.106Z,96669.72
2022-11-20T13:45:34.110Z,96680.09
2022-11-20T13:50:50.767Z,96686.22
2022-11-20T13:56:01.172Z,96695.75
2022-11-20T14:01:13.151Z,96683.28
2022-11-20T14:06:28.308Z,96682.31
2022-11-20T14:11:34.417Z,96686.41
2022-11-20T14:16:40.112Z,96690.56
2022-11-20T14:21:43.872Z,96691.78
2022-11-20T14:26:48.500Z,96704.09
2022-11-20T14:31:56.313Z,96696.44
2022-11-20T14:37:01.965Z,96692.25
2022-11-20T14:42:16.727Z,96695.19
2022-11-20T14:47:24.412Z,96691.59
2022-11-20T14:52:32.135Z,96677.13
2022-11-20T14:57:37.776Z,96673.75
2022-11-20T15:02:43.942Z,96667.78
2022-11-20T15:07:49.500Z,96662.44
2022-11-20T15:12:55.132Z,96653.53
2022-11-20T15:18:00.651Z,96668.75
2022-11-20T15:23:04.165Z,96665.72
2022-11-20T15:28:18.078Z,96654.94
2022-11-20T15:33:23.074Z,96644.38
2022-11-20T15:38:26.805Z,96629.47
2022-11-20T15:43:30.424Z,96632.59
2022-11-20T15:48:42.051Z,96635.34
2022-11-20T15:53:49.890Z,96633.66
2022-11-20T15:58:54.080Z,96636.41
2022-11-20T16:03:59.161Z,96619.84
2022-11-20T16:09:02.747Z,96617.22
2022-11-20T16:14:24.377Z,96604.47
2022-11-20T16:19:29.791Z,96597.56
2022-11-20T16:24:33.420Z,96611.66
2022-11-20T16:29:36.937Z,96604.38
2022-11-20T16:34:41.904Z,96606.84
2022-11-20T16:39:45.374Z,96594.84
2022-11-20T16:44:49.084Z,96594.41
2022-11-20T16:49:54.225Z,96594.50
2022-11-20T16:54:57.890Z,96587.69
2022-11-20T17:00:02.674Z,96588.72
2022-11-20T17:05:08.615Z,96583.34
2022-11-20T17:10:12.204Z,96577.63
2022-11-20T17:15:15.820Z,96565.53
2022-11-20T17:20:20.798Z,96561.47
2022-11-20T17:25:24.476Z,96554.44
2022-11-20T17:30:28.127Z,96536.53
2022-11-20T17:35:33.148Z,96534.69
2022-11-20T17:40:36.906Z,96529.22
2022-11-20T17:45:40.588Z,96518.47
2022-11-20T17:50:45.521Z,96515.84
2022-11-20T17:56:13.872Z,96503.69
2022-11-20T18:01:18.825Z,96495.63
2022-11-20T18:06:25.647Z,96484.31
2022-11-20T18:11:33.697Z,96465.91
2022-11-20T18:16:42.813Z,96455.50
2022-11-20T18:21:48.089Z,96456.41
2022-11-20T18:26:51.840Z,96457.06
2022-11-20T18:31:55.766Z,96445.78
2022-11-20T18:37:00.925Z,96430.19
2022-11-20T18:42:22.680Z,96425.72
2022-11-20T18:47:30.398Z,96409.22
2022-11-20T18:52:39.195Z,96405.06
2022-11-20T18:57:43.093Z,96406.28
2022-11-20T19:02:47.079Z,96403.41
2022-11-20T19:07:52.599Z,96391.28
2022-11-20T19:12:58.666Z,96385.13
2022-11-20T19:18:03.077Z,96381.81
2022-11-20T19:23:09.199Z,96372.94
2022-11-20T19:28:13.837Z,96368.19
2022-11-20T19:33:18.015Z,96355.81
2022-11-20T19:38:23.091Z,96338.16
2022-11-20T19:43:27.101Z,96331.47
2022-11-20T19:48:32.340Z,96318.25
2022-11-20T19:53:38.874Z,96322.16
2022-11-20T19:58:43.624Z,96312.28
2022-11-20T20:03:48.661Z,96308.38
2022-11-20T20:08:58.453Z,96296.09
2022-11-20T20:14:02.912Z,96290.13
2022-11-20T20:19:07.249Z,96287.31
2022-11-20T20:24:13.421Z,96283.69
2022-11-20T20:29:20.567Z,96278.38
2022-11-20T20:34:24.347Z,96263.19
2022-11-20T20:39:29.794Z,96259.44
2022-11-20T20:44:50.977Z,96243.66
2022-11-20T20:49:54.675Z,96239.25
2022-11-20T20:55:00.564Z,96229.72
2022-11-20T21:00:05.929Z,96221.84
2022-11-20T21:05:10.464Z,96205.66
2022-11-20T21:10:22.470Z,96200.91
2022-11-20T21:15:27.742Z,96189.00
2022-11-20T21:20:49.061Z,96177.72
2022-11-20T21:25:54.214Z,96164.91
2022-11-20T21:31:05.401Z,96154.66
2022-11-20T21:36:10.249Z,96143.06
2022-11-20T21:41:16.403Z,96127.00
2022-11-20T21:46:19.973Z,96111.53
2022-11-20T21:51:25.247Z,96103.00
2022-11-20T21:56:30.379Z,96090.56
2022-11-20T22:01:34.066Z,96077.34
2022-11-20T22:06:37.664Z,96072.38
2022-11-20T22:11:42.704Z,96053.28
2022-11-20T22:16:46.333Z,96044.22
2022-11-20T22:21:51.215Z,96036.00
2022-11-20T22:26:56.156Z,96030.00
2022-11-20T22:31:59.717Z,96025.75
2022-11-20T22:37:03.309Z,96013.72
2022-11-20T22:42:08.188Z,96011.56
2022-11-20T22:47:11.831Z,96000.59
2022-11-20T22:52:15.655Z,96005.22
2022-11-20T22:57:20.943Z,95998.72
2022-11-20T23:02:24.544Z,95994.09
2022-11-20T23:07:28.258Z,95997.88
2022-11-20T23:12:33.503Z,95981.69
2022-11-20T23:17:36.996Z,95988.13
2022-11-20T23:22:40.597Z,95974.59
2022-11-20T23:27:45.530Z,95967.25
2022-11-20T23:32:49.043Z,95977.41
2022-11-20T23:37:52.558Z,95979.06
2022-11-20T23:43:14.962Z,95977.81
2022-11-20T23:48:19.832Z,95982.19
2022-11-20T23:53:24.893Z,95970.38
2022-11-20T23:58:33.288Z,95975.97
